sensor_id;sensor_type;location;lat;lon;timestamp;pressure;altitude;pressure_sealevel;temperature;humidity
75553;BME280;64136;53.118;17.996;2022-11-20T00:01:17;100927.05;;;-1.48;80.49
75553;BME280;64136;53.118;17.996;2022-11-20T00:03:44;100923.60;;;-1.49;80.63
75553;BME280;64136;53.118;17.996;2022-11-20T00:06:12;100921.17;;;-1.50;80.43
75553;BME280;64136;53.118;17.996;2022-11-20T00:08:39;100921.05;;;-1.54;80.69
75553;BME280;64136;53.118;17.996;2022-11-20T00:11:10;100921.23;;;-1.55;80.70
75553;BME280;64136;53.118;17.996;2022-11-20T00:13:36;100923.70;;;-1.43;80.47
75553;BME280;64136;53.118;17.996;2022-11-20T00:16:05;100923.34;;;-1.43;80.41
75553;BME280;64136;53.118;17.996;2022-11-20T00:18:35;100923.17;;;-1.43;80.47
75553;BME280;64136;53.118;17.996;2022-11-20T00:21:06;100924.27;;;-1.48;80.59
75553;BME280;64136;53.118;17.996;2022-11-20T00:23:33;100926.55;;;-1.50;80.69
75553;BME280;64136;53.118;17.996;2022-11-20T00:26:04;100931.80;;;-1.53;80.64
75553;BME280;64136;53.118;17.996;2022-11-20T00:28:31;100938.02;;;-1.49;80.56
75553;BME280;64136;53.118;17.996;2022-11-20T00:31:04;100936.52;;;-1.41;80.42
75553;BME280;64136;53.118;17.996;2022-11-20T00:33:31;100935.13;;;-1.40;80.42
75553;BME280;64136;53.118;17.996;2022-11-20T00:36:05;100938.59;;;-1.39;80.44
75553;BME280;64136;53.118;17.996;2022-11-20T00:38:32;100936.89;;;-1.42;80.63
75553;BME280;64136;53.118;17.996;2022-11-20T00:41:01;100932.57;;;-1.44;80.70
75553;BME280;64136;53.118;17.996;2022-11-20T00:43:28;100931.37;;;-1.46;80.73
75553;BME280;64136;53.118;17.996;2022-11-20T00:46:01;100928.79;;;-1.48;80.70
75553;BME280;64136;53.118;17.996;2022-11-20T00:48:27;100928.35;;;-1.40;80.54
75553;BME280;64136;53.118;17.996;2022-11-20T00:50:54;100930.40;;;-1.36;80.54
75553;BME280;64136;53.118;17.996;2022-11-20T00:53:21;100931.30;;;-1.39;80.55
75553;BME280;64136;53.118;17.996;2022-11-20T00:56:02;100928.94;;;-1.45;80.50
75553;BME280;64136;53.118;17.996;2022-11-20T00:58:33;100930.87;;;-1.47;80.70
75553;BME280;64136;53.118;17.996;2022-11-20T01:01:06;100937.83;;;-1.48;80.76
75553;BME280;64136;53.118;17.996;2022-11-20T01:03:37;100937.14;;;-1.48;80.82
75553;BME280;64136;53.118;17.996;2022-11-20T01:06:06;100937.02;;;-1.36;80.57
75553;BME280;64136;53.118;17.996;2022-11-20T01:08:34;100936.30;;;-1.33;80.37
75553;BME280;64136;53.118;17.996;2022-11-20T01:11:05;100938.35;;;-1.32;80.61
75553;BME280;64136;53.118;17.996;2022-11-20T01:13:32;100934.89;;;-1.33;80.57
75553;BME280;64136;53.118;17.996;2022-11-20T01:18:37;100927.96;;;-1.37;80.74
75553;BME280;64136;53.118;17.996;2022-11-20T01:21:06;100927.80;;;-1.37;80.84
75553;BME280;64136;53.118;17.996;2022-11-20T01:23:34;100923.80;;;-1.38;80.81
75553;BME280;64136;53.118;17.996;2022-11-20T01:26:03;100919.64;;;-1.38;80.82
75553;BME280;64136;53.118;17.996;2022-11-20T01:28:30;100920.15;;;-1.38;80.90
75553;BME280;64136;53.118;17.996;2022-11-20T01:30:57;100920.86;;;-1.39;80.95
75553;BME280;64136;53.118;17.996;2022-11-20T01:33:23;100920.40;;;-1.27;80.69
75553;BME280;64136;53.118;17.996;2022-11-20T01:35:49;100922.80;;;-1.24;80.46
75553;BME280;64136;53.118;17.996;2022-11-20T01:38:16;100926.08;;;-1.22;80.49
75553;BME280;64136;53.118;17.996;2022-11-20T01:40:42;100929.88;;;-1.21;80.56
75553;BME280;64136;53.118;17.996;2022-11-20T01:43:19;100930.20;;;-1.18;80.42
75553;BME280;64136;53.118;17.996;2022-11-20T01:48:42;100930.61;;;-1.24;80.69
75553;BME280;64136;53.118;17.996;2022-11-20T01:51:17;100930.64;;;-1.26;80.61
75553;BME280;64136;53.118;17.996;2022-11-20T01:53:45;100928.77;;;-1.29;80.59
75553;BME280;64136;53.118;17.996;2022-11-20T01:56:13;100924.47;;;-1.33;80.61
75553;BME280;64136;53.118;17.996;2022-11-20T01:58:50;100923.27;;;-1.33;80.59
75553;BME280;64136;53.118;17.996;2022-11-20T02:01:18;100918.09;;;-1.23;80.19
75553;BME280;64136;53.118;17.996;2022-11-20T02:03:44;100921.04;;;-1.23;80.17
75553;BME280;64136;53.118;17.996;2022-11-20T02:06:21;100924.36;;;-1.24;80.29
75553;BME280;64136;53.118;17.996;2022-11-20T02:08:49;100923.95;;;-1.33;80.46
75553;BME280;64136;53.118;17.996;2022-11-20T02:11:15;100918.25;;;-1.39;80.79
75553;BME280;64136;53.118;17.996;2022-11-20T02:13:41;100919.69;;;-1.43;80.65
75553;BME280;64136;53.118;17.996;2022-11-20T02:18:47;100914.55;;;-1.47;80.66
75553;BME280;64136;53.118;17.996;2022-11-20T02:21:19;100912.79;;;-1.46;80.67
75553;BME280;64136;53.118;17.996;2022-11-20T02:24:00;100910.25;;;-1.36;80.36
75553;BME280;64136;53.118;17.996;2022-11-20T02:26:28;100908.68;;;-1.35;80.34
75553;BME280;64136;53.118;17.996;2022-11-20T02:28:56;100906.05;;;-1.33;80.41
75553;BME280;64136;53.118;17.996;2022-11-20T02:31:22;100903.79;;;-1.32;80.30
75553;BME280;64136;53.118;17.996;2022-11-20T02:33:54;100901.73;;;-1.36;80.53
75553;BME280;64136;53.118;17.996;2022-11-20T02:36:21;100898.09;;;-1.37;80.71
75553;BME280;64136;53.118;17.996;2022-11-20T02:38:48;100897.41;;;-1.39;80.72
75553;BME280;64136;53.118;17.996;2022-11-20T02:41:15;100894.51;;;-1.43;80.72
75553;BME280;64136;53.118;17.996;2022-11-20T02:43:41;100895.23;;;-1.46;80.74
75553;BME280;64136;53.118;17.996;2022-11-20T02:46:07;100889.93;;;-1.38;80.66
75553;BME280;64136;53.118;17.996;2022-11-20T02:48:34;100889.57;;;-1.37;80.43
75553;BME280;64136;53.118;17.996;2022-11-20T02:51:00;100890.44;;;-1.37;80.75
75553;BME280;64136;53.118;17.996;2022-11-20T02:53:26;100895.18;;;-1.41;80.79
75553;BME280;64136;53.118;17.996;2022-11-20T02:55:52;100899.91;;;-1.44;80.89
75553;BME280;64136;53.118;17.996;2022-11-20T02:58:18;100896.46;;;-1.47;80.98
75553;BME280;64136;53.118;17.996;2022-11-20T03:00:44;100897.90;;;-1.50;81.07
75553;BME280;64136;53.118;17.996;2022-11-20T03:03:10;100901.21;;;-1.51;81.15
75553;BME280;64136;53.118;17.996;2022-11-20T03:05:36;100902.60;;;-1.52;81.29
75553;BME280;64136;53.118;17.996;2022-11-20T03:08:02;100905.30;;;-1.45;81.00
75553;BME280;64136;53.118;17.996;2022-11-20T03:10:28;100903.48;;;-1.38;80.79
75553;BME280;64136;53.118;17.996;2022-11-20T03:12:55;100900.01;;;-1.38;80.79
75553;BME280;64136;53.118;17.996;2022-11-20T03:15:24;100900.88;;;-1.38;80.74
75553;BME280;64136;53.118;17.996;2022-11-20T03:17:54;100896.42;;;-1.44;80.84
75553;BME280;64136;53.118;17.996;2022-11-20T03:20:22;100897.33;;;-1.46;80.89
75553;BME280;64136;53.118;17.996;2022-11-20T03:22:48;100895.09;;;-1.48;81.05
75553;BME280;64136;53.118;17.996;2022-11-20T03:25:14;100894.60;;;-1.50;81.10
75553;BME280;64136;53.118;17.996;2022-11-20T03:27:40;100895.47;;;-1.50;81.20
75553;BME280;64136;53.118;17.996;2022-11-20T03:30:07;100896.58;;;-1.42;80.99
75553;BME280;64136;53.118;17.996;2022-11-20T03:32:33;100892.22;;;-1.41;81.01
75553;BME280;64136;53.118;17.996;2022-11-20T03:34:59;100891.31;;;-1.37;80.84
75553;BME280;64136;53.118;17.996;2022-11-20T03:37:25;100889.57;;;-1.37;80.86
75553;BME280;64136;53.118;17.996;2022-11-20T03:39:51;100890.48;;;-1.41;81.07
75553;BME280;64136;53.118;17.996;2022-11-20T03:42:17;100890.33;;;-1.42;81.22
75553;BME280;64136;53.118;17.996;2022-11-20T03:45:01;100892.95;;;-1.44;81.34
75553;BME280;64136;53.118;17.996;2022-11-20T03:47:28;100894.19;;;-1.45;81.22
75553;BME280;64136;53.118;17.996;2022-11-20T03:49:54;100893.70;;;-1.48;81.26
75553;BME280;64136;53.118;17.996;2022-11-20T03:52:20;100892.23;;;-1.42;80.98
75553;BME280;64136;53.118;17.996;2022-11-20T03:54:46;100893.40;;;-1.38;80.81
75553;BME280;64136;53.118;17.996;2022-11-20T03:57:12;100891.83;;;-1.37;81.01
75553;BME280;64136;53.118;17.996;2022-11-20T03:59:38;100896.68;;;-1.34;81.13
75553;BME280;64136;53.118;17.996;2022-11-20T04:02:04;100897.90;;;-1.36;80.95
75553;BME280;64136;53.118;17.996;2022-11-20T04:04:30;100897.61;;;-1.41;81.07
75553;BME280;64136;53.118;17.996;2022-11-20T04:06:56;100894.38;;;-1.46;81.15
75553;BME280;64136;53.118;17.996;2022-11-20T04:09:22;100890.45;;;-1.52;81.06
75553;BME280;64136;53.118;17.996;2022-11-20T04:11:48;100890.83;;;-1.55;81.03
75553;BME280;64136;53.118;17.996;2022-11-20T04:14:15;100895.80;;;-1.48;81.03
75553;BME280;64136;53.118;17.996;2022-11-20T04:16:42;100892.48;;;-1.47;80.78
75553;BME280;64136;53.118;17.996;2022-11-20T04:19:10;100890.42;;;-1.50;80.98
75553;BME280;64136;53.118;17.996;2022-11-20T04:21:37;100883.55;;;-1.57;81.29
75553;BME280;64136;53.118;17.996;2022-11-20T04:24:03;100884.77;;;-1.56;81.29
75553;BME280;64136;53.118;17.996;2022-11-20T04:26:30;100884.27;;;-1.57;81.16
75553;BME280;64136;53.118;17.996;2022-11-20T04:28:57;100884.09;;;-1.59;81.26
75553;BME280;64136;53.118;17.996;2022-11-20T04:31:29;100884.43;;;-1.60;81.51
75553;BME280;64136;53.118;17.996;2022-11-20T04:33:55;100880.52;;;-1.49;81.11
75553;BME280;64136;53.118;17.996;2022-11-20T04:36:25;100882.04;;;-1.46;81.07
75553;BME280;64136;53.118;17.996;2022-11-20T04:38:53;100878.03;;;-1.45;81.23
75553;BME280;64136;53.118;17.996;2022-11-20T04:41:21;100874.39;;;-1.45;81.25
75553;BME280;64136;53.118;17.996;2022-11-20T04:43:49;100873.56;;;-1.48;81.27
75553;BME280;64136;53.118;17.996;2022-11-20T04:46:20;100870.63;;;-1.50;81.22
75553;BME280;64136;53.118;17.996;2022-11-20T04:48:47;100868.92;;;-1.53;81.29
75553;BME280;64136;53.118;17.996;2022-11-20T04:51:13;100865.48;;;-1.56;81.42
75553;BME280;64136;53.118;17.996;2022-11-20T04:53:39;100864.38;;;-1.50;81.43
75553;BME280;64136;53.118;17.996;2022-11-20T04:56:07;100870.73;;;-1.45;81.16
75553;BME280;64136;53.118;17.996;2022-11-20T04:58:34;100870.23;;;-1.46;81.09
75553;BME280;64136;53.118;17.996;2022-11-20T05:01:22;100865.02;;;-1.46;81.25
75553;BME280;64136;53.118;17.996;2022-11-20T05:03:47;100864.76;;;-1.53;81.28
75553;BME280;64136;53.118;17.996;2022-11-20T05:06:15;100861.49;;;-1.56;81.46
75553;BME280;64136;53.118;17.996;2022-11-20T05:08:42;100858.38;;;-1.58;81.43
75553;BME280;64136;53.118;17.996;2022-11-20T05:11:15;100853.36;;;-1.61;81.56
75553;BME280;64136;53.118;17.996;2022-11-20T05:13:42;100854.88;;;-1.54;81.25
75553;BME280;64136;53.118;17.996;2022-11-20T05:16:13;100858.36;;;-1.56;81.36
75553;BME280;64136;53.118;17.996;2022-11-20T05:18:40;100858.88;;;-1.55;81.52
75553;BME280;64136;53.118;17.996;2022-11-20T05:21:08;100857.17;;;-1.59;81.59
75553;BME280;64136;53.118;17.996;2022-11-20T05:23:35;100859.27;;;-1.61;81.53
75553;BME280;64136;53.118;17.996;2022-11-20T05:26:03;100853.92;;;-1.65;81.64
75553;BME280;64136;53.118;17.996;2022-11-20T05:28:30;100849.42;;;-1.66;81.72
75553;BME280;64136;53.118;17.996;2022-11-20T05:31:13;100847.96;;;-1.58;81.43
75553;BME280;64136;53.118;17.996;2022-11-20T05:33:41;100854.88;;;-1.54;81.35
75553;BME280;64136;53.118;17.996;2022-11-20T05:36:08;100854.21;;;-1.58;81.57
75553;BME280;64136;53.118;17.996;2022-11-20T05:38:35;100861.19;;;-1.61;81.72
75553;BME280;64136;53.118;17.996;2022-11-20T05:43:35;100858.61;;;-1.64;82.06
75553;BME280;64136;53.118;17.996;2022-11-20T05:46:02;100861.67;;;-1.56;81.72
75553;BME280;64136;53.118;17.996;2022-11-20T05:48:29;100861.30;;;-1.53;81.71
75553;BME280;64136;53.118;17.996;2022-11-20T05:51:00;100857.30;;;-1.53;81.80
75553;BME280;64136;53.118;17.996;2022-11-20T05:53:26;100860.46;;;-1.58;81.75
75553;BME280;64136;53.118;17.996;2022-11-20T05:55:57;100858.38;;;-1.60;82.03
75553;BME280;64136;53.118;17.996;2022-11-20T05:58:23;100855.82;;;-1.63;82.26
75553;BME280;64136;53.118;17.996;2022-11-20T06:00:50;100859.94;;;-1.57;81.90
75553;BME280;64136;53.118;17.996;2022-11-20T06:03:16;100853.12;;;-1.52;81.74
75553;BME280;64136;53.118;17.996;2022-11-20T06:05:42;100859.33;;;-1.50;81.89
75553;BME280;64136;53.118;17.996;2022-11-20T06:08:08;100860.20;;;-1.50;81.87
75553;BME280;64136;53.118;17.996;2022-11-20T06:10:34;100861.63;;;-1.52;82.00
75553;BME280;64136;53.118;17.996;2022-11-20T06:13:00;100863.55;;;-1.53;82.06
75553;BME280;64136;53.118;17.996;2022-11-20T06:15:26;100866.70;;;-1.56;81.80
75553;BME280;64136;53.118;17.996;2022-11-20T06:17:55;100867.08;;;-1.58;81.98
75553;BME280;64136;53.118;17.996;2022-11-20T06:20:21;100864.90;;;-1.50;81.93
75553;BME280;64136;53.118;17.996;2022-11-20T06:22:47;100863.09;;;-1.45;81.76
75553;BME280;64136;53.118;17.996;2022-11-20T06:25:13;100862.90;;;-1.43;81.89
75553;BME280;64136;53.118;17.996;2022-11-20T06:27:39;100859.80;;;-1.45;81.86
75553;BME280;64136;53.118;17.996;2022-11-20T06:30:06;100861.58;;;-1.49;82.08
75553;BME280;64136;53.118;17.996;2022-11-20T06:32:33;100858.84;;;-1.52;82.17
75553;BME280;64136;53.118;17.996;2022-11-20T06:34:59;100862.87;;;-1.54;82.18
75553;BME280;64136;53.118;17.996;2022-11-20T06:37:25;100862.52;;;-1.55;82.16
75553;BME280;64136;53.118;17.996;2022-11-20T06:39:51;100860.80;;;-1.55;82.05
75553;BME280;64136;53.118;17.996;2022-11-20T06:42:17;100853.19;;;-1.44;81.81
75553;BME280;64136;53.118;17.996;2022-11-20T06:44:43;100849.32;;;-1.41;81.73
75553;BME280;64136;53.118;17.996;2022-11-20T06:47:09;100851.55;;;-1.39;81.86
75553;BME280;64136;53.118;17.996;2022-11-20T06:49:35;100851.88;;;-1.38;81.86
75553;BME280;64136;53.118;17.996;2022-11-20T06:52:02;100853.80;;;-1.39;82.08
75553;BME280;64136;53.118;17.996;2022-11-20T06:54:28;100854.67;;;-1.39;81.99
75553;BME280;64136;53.118;17.996;2022-11-20T06:56:54;100855.04;;;-1.40;81.98
75553;BME280;64136;53.118;17.996;2022-11-20T06:59:20;100852.08;;;-1.40;82.02
75553;BME280;64136;53.118;17.996;2022-11-20T07:01:47;100855.77;;;-1.28;81.65
75553;BME280;64136;53.118;17.996;2022-11-20T07:04:13;100856.92;;;-1.23;81.60
75553;BME280;64136;53.118;17.996;2022-11-20T07:06:39;100859.63;;;-1.17;81.68
75553;BME280;64136;53.118;17.996;2022-11-20T07:09:05;100860.81;;;-1.15;81.55
75553;BME280;64136;53.118;17.996;2022-11-20T07:11:31;100856.16;;;-1.18;81.72
75553;BME280;64136;53.118;17.996;2022-11-20T07:13:57;100853.72;;;-1.17;81.77
75553;BME280;64136;53.118;17.996;2022-11-20T07:16:23;100854.92;;;-1.16;81.57
75553;BME280;64136;53.118;17.996;2022-11-20T07:18:49;100846.27;;;-1.19;81.63
75553;BME280;64136;53.118;17.996;2022-11-20T07:21:15;100841.00;;;-1.14;81.36
75553;BME280;64136;53.118;17.996;2022-11-20T07:23:41;100844.03;;;-1.06;81.36
75553;BME280;64136;53.118;17.996;2022-11-20T07:26:09;100846.27;;;-1.05;81.27
75553;BME280;64136;53.118;17.996;2022-11-20T07:28:36;100849.35;;;-1.02;81.46
75553;BME280;64136;53.118;17.996;2022-11-20T07:31:03;100847.95;;;-1.01;81.38
75553;BME280;64136;53.118;17.996;2022-11-20T07:33:30;100845.87;;;-1.01;81.37
75553;BME280;64136;53.118;17.996;2022-11-20T07:35:58;100850.85;;;-0.98;81.42
75553;BME280;64136;53.118;17.996;2022-11-20T07:38:25;100851.53;;;-0.96;81.39
75553;BME280;64136;53.118;17.996;2022-11-20T07:40:55;100844.40;;;-0.96;81.51
75553;BME280;64136;53.118;17.996;2022-11-20T07:43:22;100845.05;;;-0.94;81.27
75553;BME280;64136;53.118;17.996;2022-11-20T07:45:48;100842.95;;;-0.92;81.21
75553;BME280;64136;53.118;17.996;2022-11-20T07:48:14;100838.89;;;-0.87;81.09
75553;BME280;64136;53.118;17.996;2022-11-20T07:50:40;100837.30;;;-0.73;81.02
75553;BME280;64136;53.118;17.996;2022-11-20T07:53:06;100833.98;;;-0.60;80.73
75553;BME280;64136;53.118;17.996;2022-11-20T07:55:32;100835.09;;;-0.53;80.70
75553;BME280;64136;53.118;17.996;2022-11-20T07:57:58;100836.71;;;-0.47;80.75
75553;BME280;64136;53.118;17.996;2022-11-20T08:00:25;100839.14;;;-0.46;80.68
75553;BME280;64136;53.118;17.996;2022-11-20T08:02:52;100839.08;;;-0.41;80.82
75553;BME280;64136;53.118;17.996;2022-11-20T08:05:18;100836.92;;;-0.37;80.59
75553;BME280;64136;53.118;17.996;2022-11-20T08:07:44;100830.24;;;-0.34;80.34
75553;BME280;64136;53.118;17.996;2022-11-20T08:10:13;100831.71;;;-0.28;80.21
75553;BME280;64136;53.118;17.996;2022-11-20T08:12:47;100826.14;;;-0.17;80.00
75553;BME280;64136;53.118;17.996;2022-11-20T08:15:33;100823.55;;;-0.09;79.88
75553;BME280;64136;53.118;17.996;2022-11-20T08:18:07;100824.30;;;-0.02;80.00
75553;BME280;64136;53.118;17.996;2022-11-20T08:20:34;100826.55;;;-0.02;79.79
75553;BME280;64136;53.118;17.996;2022-11-20T08:23:02;100826.90;;;-0.02;79.83
75553;BME280;64136;53.118;17.996;2022-11-20T08:25:29;100826.52;;;0.02;79.73
75553;BME280;64136;53.118;17.996;2022-11-20T08:27:59;100823.98;;;0.07;79.73
75553;BME280;64136;53.118;17.996;2022-11-20T08:30:26;100821.23;;;0.14;79.37
75553;BME280;64136;53.118;17.996;2022-11-20T08:32:53;100821.19;;;0.26;78.95
75553;BME280;64136;53.118;17.996;2022-11-20T08:35:20;100819.01;;;0.31;79.10
75553;BME280;64136;53.118;17.996;2022-11-20T08:37:47;100814.63;;;0.40;78.77
75553;BME280;64136;53.118;17.996;2022-11-20T08:40:13;100817.17;;;0.44;78.76
75553;BME280;64136;53.118;17.996;2022-11-20T08:42:47;100816.27;;;0.47;78.58
75553;BME280;64136;53.118;17.996;2022-11-20T08:45:15;100815.11;;;0.51;78.64
75553;BME280;64136;53.118;17.996;2022-11-20T08:47:42;100812.55;;;0.50;78.26
75553;BME280;64136;53.118;17.996;2022-11-20T08:50:09;100811.50;;;0.49;78.20
75553;BME280;64136;53.118;17.996;2022-11-20T08:52:35;100810.89;;;0.53;77.85
75553;BME280;64136;53.118;17.996;2022-11-20T08:55:03;100808.40;;;0.48;78.06
75553;BME280;64136;53.118;17.996;2022-11-20T08:57:34;100805.81;;;0.46;78.08
75553;BME280;64136;53.118;17.996;2022-11-20T09:00:02;100804.05;;;0.47;78.14
75553;BME280;64136;53.118;17.996;2022-11-20T09:02:28;100804.42;;;0.45;78.23
75553;BME280;64136;53.118;17.996;2022-11-20T09:04:54;100806.30;;;0.48;77.82
75553;BME280;64136;53.118;17.996;2022-11-20T09:07:20;100802.70;;;0.53;77.63
75553;BME280;64136;53.118;17.996;2022-11-20T09:09:46;100800.46;;;0.52;77.66
75553;BME280;64136;53.118;17.996;2022-11-20T09:12:13;100800.17;;;0.50;77.68
75553;BME280;64136;53.118;17.996;2022-11-20T09:14:39;100798.60;;;0.50;77.71
75553;BME280;64136;53.118;17.996;2022-11-20T09:17:05;100793.91;;;0.49;77.56
75553;BME280;64136;53.118;17.996;2022-11-20T09:19:33;100794.14;;;0.47;77.69
75553;BME280;64136;53.118;17.996;2022-11-20T09:21:59;100789.92;;;0.48;77.43
75553;BME280;64136;53.118;17.996;2022-11-20T09:24:26;100787.85;;;0.63;77.49
75553;BME280;64136;53.118;17.996;2022-11-20T09:26:52;100790.55;;;0.76;77.49
75553;BME280;64136;53.118;17.996;2022-11-20T09:29:18;100787.61;;;0.91;77.39
75553;BME280;64136;53.118;17.996;2022-11-20T09:31:44;100787.30;;;0.98;77.45
75553;BME280;64136;53.118;17.996;2022-11-20T09:34:10;100782.39;;;1.06;77.18
75553;BME280;64136;53.118;17.996;2022-11-20T09:36:36;100780.67;;;1.12;77.06
75553;BME280;64136;53.118;17.996;2022-11-20T09:39:02;100778.50;;;1.16;76.65
75553;BME280;64136;53.118;17.996;2022-11-20T09:44:19;100778.13;;;1.31;76.45
75553;BME280;64136;53.118;17.996;2022-11-20T09:47:19;100778.05;;;1.48;75.87
75553;BME280;64136;53.118;17.996;2022-11-20T09:50:25;100778.87;;;1.50;75.58
75553;BME280;64136;53.118;17.996;2022-11-20T09:55:36;100775.16;;;1.39;75.77
75553;BME280;64136;53.118;17.996;2022-11-20T09:58:07;100780.98;;;1.29;75.80
75553;BME280;64136;53.118;17.996;2022-11-20T10:00:36;100779.52;;;1.09;75.78
75553;BME280;64136;53.118;17.996;2022-11-20T10:03:13;100781.92;;;0.96;75.33
75553;BME280;64136;53.118;17.996;2022-11-20T10:05:45;100781.36;;;0.81;75.73
75553;BME280;64136;53.118;17.996;2022-11-20T10:11:00;100774.48;;;0.53;75.97
75553;BME280;64136;53.118;17.996;2022-11-20T10:18:57;100766.39;;;0.56;76.08
75553;BME280;64136;53.118;17.996;2022-11-20T10:21:46;100766.46;;;0.84;75.89
75553;BME280;64136;53.118;17.996;2022-11-20T10:24:38;100764.52;;;0.95;75.60
75553;BME280;64136;53.118;17.996;2022-11-20T10:30:00;100755.67;;;0.92;75.69
75553;BME280;64136;53.118;17.996;2022-11-20T10:32:34;100756.05;;;0.99;75.83
75553;BME280;64136;53.118;17.996;2022-11-20T10:37:42;100746.04;;;1.02;75.78
75553;BME280;64136;53.118;17.996;2022-11-20T10:42:55;100750.79;;;1.15;75.05
75553;BME280;64136;53.118;17.996;2022-11-20T10:47:54;100745.15;;;1.24;75.39
75553;BME280;64136;53.118;17.996;2022-11-20T10:50:24;100748.24;;;1.26;75.17
75553;BME280;64136;53.118;17.996;2022-11-20T10:53:25;100748.00;;;1.14;75.38
75553;BME280;64136;53.118;17.996;2022-11-20T10:55:50;100746.04;;;1.01;75.51
75553;BME280;64136;53.118;17.996;2022-11-20T10:58:35;100746.73;;;0.94;75.73
75553;BME280;64136;53.118;17.996;2022-11-20T11:01:24;100747.13;;;0.93;75.89
75553;BME280;64136;53.118;17.996;2022-11-20T11:03:53;100744.48;;;0.94;75.67
75553;BME280;64136;53.118;17.996;2022-11-20T11:06:33;100743.33;;;0.90;75.71
75553;BME280;64136;53.118;17.996;2022-11-20T11:09:13;100745.53;;;0.93;75.28
75553;BME280;64136;53.118;17.996;2022-11-20T11:11:42;100744.55;;;1.05;75.28
75553;BME280;64136;53.118;17.996;2022-11-20T11:14:10;100747.36;;;1.12;74.91
75553;BME280;64136;53.118;17.996;2022-11-20T11:17:02;100743.95;;;1.08;75.13
75553;BME280;64136;53.118;17.996;2022-11-20T11:19:27;100745.10;;;0.97;75.37
75553;BME280;64136;53.118;17.996;2022-11-20T11:21:55;100741.45;;;0.88;75.33
75553;BME280;64136;53.118;17.996;2022-11-20T11:24:27;100742.23;;;0.77;75.17
75553;BME280;64136;53.118;17.996;2022-11-20T11:27:02;100743.72;;;0.65;75.26
75553;BME280;64136;53.118;17.996;2022-11-20T11:29:31;100741.06;;;0.67;75.13
75553;BME280;64136;53.118;17.996;2022-11-20T11:32:20;100744.50;;;0.61;75.58
75553;BME280;64136;53.118;17.996;2022-11-20T11:35:05;100743.08;;;0.46;75.65
75553;BME280;64136;53.118;17.996;2022-11-20T11:37:34;100742.70;;;0.40;75.84
75553;BME280;64136;53.118;17.996;2022-11-20T11:40:03;100743.32;;;0.35;75.81
75553;BME280;64136;53.118;17.996;2022-11-20T11:42:30;100740.06;;;0.32;75.93
75553;BME280;64136;53.118;17.996;2022-11-20T11:44:59;100739.33;;;0.42;75.69
75553;BME280;64136;53.118;17.996;2022-11-20T11:47:43;100746.41;;;0.45;75.84
75553;BME280;64136;53.118;17.996;2022-11-20T11:50:17;100740.36;;;0.35;75.93
75553;BME280;64136;53.118;17.996;2022-11-20T11:52:58;100741.14;;;0.31;75.89
75553;BME280;64136;53.118;17.996;2022-11-20T11:55:31;100732.77;;;0.31;76.16
75553;BME280;64136;53.118;17.996;2022-11-20T11:58:09;100731.31;;;0.34;76.03
75553;BME280;64136;53.118;17.996;2022-11-20T12:00:40;100727.63;;;0.35;76.23
75553;BME280;64136;53.118;17.996;2022-11-20T12:03:22;100726.33;;;0.39;76.31
75553;BME280;64136;53.118;17.996;2022-11-20T12:06:14;100720.90;;;0.49;75.97
75553;BME280;64136;53.118;17.996;2022-11-20T12:11:18;100713.83;;;0.69;75.75
75553;BME280;64136;53.118;17.996;2022-11-20T12:14:02;100716.73;;;0.72;75.89
75553;BME280;64136;53.118;17.996;2022-11-20T12:16:36;100709.57;;;0.73;75.89
75553;BME280;64136;53.118;17.996;2022-11-20T12:19:09;100714.35;;;0.77;75.87
75553;BME280;64136;53.118;17.996;2022-11-20T12:30:01;100697.27;;;0.92;75.38
75553;BME280;64136;53.118;17.996;2022-11-20T12:43:24;100680.84;;;1.22;75.54
75553;BME280;64136;53.118;17.996;2022-11-20T12:46:22;100679.43;;;1.22;75.45
75553;BME280;64136;53.118;17.996;2022-11-20T12:51:49;100677.93;;;1.32;75.10
75553;BME280;64136;53.118;17.996;2022-11-20T12:57:08;100672.49;;;1.41;75.30
75553;BME280;64136;53.118;17.996;2022-11-20T13:05:26;100665.90;;;1.40;75.38
75553;BME280;64136;53.118;17.996;2022-11-20T13:07:56;100659.83;;;1.39;75.43
75553;BME280;64136;53.118;17.996;2022-11-20T13:10:33;100658.04;;;1.40;75.52
75553;BME280;64136;53.118;17.996;2022-11-20T13:16:12;100657.13;;;1.54;75.40
75553;BME280;64136;53.118;17.996;2022-11-20T13:18:43;100651.48;;;1.44;75.38
75553;BME280;64136;53.118;17.996;2022-11-20T13:21:14;100649.73;;;1.31;75.61
75553;BME280;64136;53.118;17.996;2022-11-20T13:23:40;100644.23;;;1.27;75.60
75553;BME280;64136;53.118;17.996;2022-11-20T13:26:22;100640.59;;;1.20;75.65
75553;BME280;64136;53.118;17.996;2022-11-20T13:29:03;100633.49;;;1.18;75.72
75553;BME280;64136;53.118;17.996;2022-11-20T13:31:35;100630.92;;;1.29;75.40
75553;BME280;64136;53.118;17.996;2022-11-20T13:34:04;100631.23;;;1.30;75.37
75553;BME280;64136;53.118;17.996;2022-11-20T13:36:32;100631.70;;;1.26;75.73
75553;BME280;64136;53.118;17.996;2022-11-20T13:39:00;100632.73;;;1.20;75.65
75553;BME280;64136;53.118;17.996;2022-11-20T13:41:36;100629.48;;;1.11;75.80
75553;BME280;64136;53.118;17.996;2022-11-20T13:46:50;100630.39;;;0.88;75.92
75553;BME280;64136;53.118;17.996;2022-11-20T13:51:50;100636.27;;;0.83;75.97
75553;BME280;64136;53.118;17.996;2022-11-20T14:02:17;100624.44;;;0.38;76.64
75553;BME280;64136;53.118;17.996;2022-11-20T14:04:48;100623.05;;;0.38;76.53
75553;BME280;64136;53.118;17.996;2022-11-20T14:07:16;100621.77;;;0.25;76.49
75553;BME280;64136;53.118;17.996;2022-11-20T14:09:55;100621.86;;;0.20;76.69
75553;BME280;64136;53.118;17.996;2022-11-20T14:12:27;100624.67;;;0.11;76.94
75553;BME280;64136;53.118;17.996;2022-11-20T14:14:54;100620.15;;;0.04;77.03
75553;BME280;64136;53.118;17.996;2022-11-20T14:17:32;100616.54;;;0.09;76.80
75553;BME280;64136;53.118;17.996;2022-11-20T14:20:04;100618.08;;;0.11;76.83